Data for 04/04/2010

Time Sea-Level Adjusted Pressure Absolute Pressure Temperature Relative Humidity Dew Point   
(mb) (inHg) (mb) (inHg) (C) (F) (%) (C) (F)
00:05 1010 29.83 839 24.78 -3.6 25.5 58 -10.7 12.8
00:10 1010 29.83 839 24.78 -3.6 25.5 57 -11 12.3
00:15 1010 29.83 839 24.78 -3.8 25.1 58 -11 12.2
00:20 1010 29.83 839 24.78 -3.9 24.9 60 -10.6 13
00:25 1010 29.83 839 24.78 -4 24.8 61 -10.5 13.1
00:30 1010 29.83 839 24.78 -3.6 25.6 57 -11 12.3
00:35 1010 29.83 839 24.78 -3 26.5 55 -10.7 12.7
00:40 1010 29.83 839 24.78 -2.9 26.7 55 -10.7 12.8
00:45 1010 29.83 839 24.78 -2.9 26.8 56 -10.6 13
00:50 1010 29.83 839 24.78 -2.9 26.8 57 -10.4 13.4
00:55 1010 29.83 839 24.78 -2.9 26.7 56 -10.5 13.1
01:00 1010 29.83 839 24.78 -3 26.7 55 -10.8 12.6
01:05 1010 29.83 839 24.78 -3 26.6 56 -10.6 12.9
01:10 1010 29.83 839 24.78 -3.1 26.5 57 -10.5 13.1
01:15 1010 29.83 839 24.78 -3.2 26.2 58 -10.3 13.5
01:20 1010 29.83 839 24.78 -3.4 25.9 59 -10.3 13.5
01:25 1010 29.83 839 24.78 -3.7 25.3 59 -10.5 13.1
01:30 1010 29.83 839 24.78 -3.9 24.9 60 -10.6 13
01:35 1010 29.83 839 24.78 -3.8 25.1 61 -10.3 13.4
01:40 1010 29.83 839 24.78 -3.6 25.5 60 -10.3 13.5
01:45 1010 29.83 839 24.78 -3.6 25.6 60 -10.2 13.7
01:50 1010 29.83 839 24.78 -3.7 25.4 62 -10 14
01:55 1010 29.83 839 24.78 -4 24.8 62 -10.2 13.6
02:00 1010 29.83 839 24.78 -4.1 24.6 60 -10.7 12.7
02:05 1010 29.83 839 24.78 -4 24.8 62 -10.3 13.5
02:10 1010 29.83 839 24.78 -4.4 24 65 -10.1 13.8
02:15 1010 29.83 839 24.78 -4.8 23.4 68 -9.8 14.4
02:20 1010 29.83 839 24.78 -5.1 22.8 66 -10.5 13.1
02:25 1010 29.83 839 24.78 -4.8 23.3 61 -11.2 11.9
02:30 1010 29.83 839 24.78 -4.4 24.1 61 -10.9 12.4
02:35 1010 29.83 839 24.78 -4.6 23.8 63 -10.7 12.8
02:40 1010 29.83 839 24.78 -4.8 23.3 64 -10.7 12.7
02:45 1010 29.83 839 24.78 -4.9 23.2 64 -10.7 12.7
02:50 1010 29.83 839 24.78 -4.8 23.4 64 -10.6 13
02:55 1010 29.83 839 24.78 -4.9 23.2 65 -10.5 13
03:00 1010 29.83 839 24.78 -5.1 22.8 66 -10.5 13.1
03:05 1010 29.83 839 24.78 -5.2 22.7 65 -10.7 12.8
03:10 1010 29.83 839 24.78 -5.1 22.9 65 -10.7 12.7
03:15 1010 29.83 839 24.78 -4.9 23.1 65 -10.6 13
03:20 1010 29.83 839 24.78 -5 23 65 -10.6 12.9
03:25 1010 29.83 839 24.78 -5.2 22.7 65 -10.7 12.7
03:30 1010 29.83 839 24.78 -5 23 64 -10.8 12.5
03:35 1010 29.83 839 24.78 -4.9 23.2 64 -10.6 12.9
03:40 1010 29.83 839 24.78 -4.8 23.3 65 -10.4 13.3
03:45 1010 29.83 839 24.78 -5 23.1 66 -10.5 13.2
03:50 1010 29.83 839 24.78 -4.9 23.1 65 -10.5 13.1
03:55 1010 29.83 839 24.78 -4.9 23.1 66 -10.3 13.4
04:00 1010 29.83 839 24.78 -5 23 66 -10.3 13.4
04:05 1010 29.83 839 24.78 -5 23 66 -10.5 13.2
04:10 1010 29.83 839 24.78 -4.8 23.3 65 -10.4 13.3
04:15 1010 29.83 839 24.78 -4.8 23.4 65 -10.4 13.3
04:20 1010 29.83 839 24.78 -4.8 23.3 65 -10.4 13.3
04:25 1010 29.83 839 24.78 -4.9 23.2 65 -10.4 13.3
04:30 1010 29.83 839 24.78 -4.9 23.2 65 -10.4 13.2
04:35 1010 29.83 839 24.78 -4.7 23.6 63 -10.6 12.8
04:40 1010 29.83 839 24.78 -4.5 24 64 -10.4 13.4
04:45 1010 29.83 839 24.78 -4.7 23.5 66 -10.2 13.6
04:50 1010 29.83 839 24.78 -4.8 23.3 64 -10.6 12.9
04:55 1010 29.83 839 24.78 -4.8 23.3 65 -10.5 13.1
05:00 1010 29.83 839 24.78 -4.9 23.3 65 -10.5 13.1
05:05 1010 29.83 839 24.78 -4.7 23.5 65 -10.4 13.3
05:10 1010 29.83 839 24.78 -4.7 23.6 67 -9.9 14.2
05:15 1010 29.83 839 24.78 -4.8 23.4 66 -10.1 13.8
05:20 1010 29.83 839 24.78 -4.5 23.8 67 -9.7 14.5
05:25 1010 29.83 839 24.78 -4.5 23.9 68 -9.6 14.8
05:30 1010 29.83 839 24.78 -4.6 23.8 69 -9.5 15
05:35 1010 29.83 840 24.81 -4.4 24.1 70 -9.1 15.5
05:40 1010 29.83 840 24.81 -4.2 24.4 69 -9.2 15.5
05:45 1010 29.83 840 24.81 -4 24.7 68 -9.1 15.6
05:50 1010 29.83 840 24.81 -3.9 25 67 -9.2 15.4
05:55 1010 29.83 840 24.81 -3.7 25.3 67 -9.1 15.7
06:00 1011 29.85 840 24.81 -3.6 25.5 67 -8.8 16.1
06:05 1011 29.85 840 24.81 -3.7 25.4 68 -8.8 16.2
06:10 1011 29.85 840 24.81 -3.7 25.3 68 -8.8 16.2
06:15 1011 29.85 840 24.81 -3.9 25 69 -8.7 16.3
06:20 1011 29.85 840 24.81 -4.1 24.6 71 -8.6 16.5
06:25 1011 29.85 840 24.81 -4.1 24.5 72 -8.6 16.6
06:30 1011 29.85 840 24.81 -4 24.7 71 -8.5 16.7
06:35 1011 29.85 840 24.81 -4.1 24.7 72 -8.4 16.9
06:40 1011 29.85 840 24.81 -4.1 24.7 72 -8.4 16.9
06:45 1011 29.85 840 24.81 -4.1 24.6 73 -8.3 17.1
06:50 1011 29.85 840 24.81 -4.1 24.6 73 -8.2 17.3
06:55 1011 29.85 840 24.81 -4 24.8 73 -8.1 17.3
07:00 1011 29.85 840 24.81 -3.8 25.1 72 -8.1 17.4
07:05 1011 29.85 841 24.83 -3.7 25.3 69 -8.5 16.7
07:10 1011 29.85 841 24.83 -3.6 25.5 71 -8.1 17.5
07:15 1011 29.85 841 24.83 -3.6 25.4 71 -8.2 17.2
07:20 1011 29.85 841 24.83 -3.6 25.5 72 -7.9 17.8
07:25 1011 29.85 841 24.83 -3.7 25.4 73 -7.8 17.9
07:30 1011 29.85 841 24.83 -3.8 25.2 73 -7.9 17.8
07:35 1011 29.85 841 24.83 -3.7 25.4 72 -8.1 17.4
07:40 1011 29.85 841 24.83 -3.6 25.6 70 -8.3 17
07:45 1012 29.88 841 24.83 -3.5 25.6 66 -8.9 15.9
07:50 1012 29.88 841 24.83 -3.1 26.4 66 -8.5 16.7
07:55 1012 29.88 841 24.83 -2.8 26.9 65 -8.6 16.6
08:00 1012 29.88 841 24.83 -2.5 27.5 64 -8.4 16.8
08:05 1012 29.88 841 24.83 -2 28.4 62 -8.4 16.9
08:10 1012 29.88 841 24.83 -1.5 29.4 59 -8.4 16.9
08:15 1012 29.88 841 24.83 -1.3 29.7 58 -8.5 16.7
08:20 1012 29.88 841 24.83 -1.3 29.8 59 -8.3 17
08:25 1012 29.88 841 24.83 -1.5 29.3 59 -8.5 16.7
08:30 1012 29.88 841 24.83 -1.4 29.4 55 -9.3 15.3
08:35 1012 29.88 841 24.83 -0.9 30.4 53 -9.2 15.4
08:40 1012 29.88 841 24.83 -0.8 30.6 54 -8.9 15.9
08:45 1012 29.88 841 24.83 -0.4 31.3 52 -9 15.8
08:50 1012 29.88 841 24.83 0.1 32.2 52 -8.6 16.5
08:55 1012 29.88 841 24.83 0.4 32.7 51 -8.5 16.7
09:00 1012 29.88 841 24.83 0.3 32.6 54 -8 17.7
09:05 1012 29.88 841 24.83 -0.2 31.6 54 -8.4 16.8
09:10 1012 29.88 841 24.83 -0.1 31.8 53 -8.5 16.7
09:15 1012 29.88 841 24.83 -0.1 31.9 54 -8.4 16.9
09:20 1012 29.88 841 24.83 -0.3 31.5 54 -8.4 16.8
09:25 1012 29.88 841 24.83 0.3 32.5 51 -8.8 16.1
09:30 1012 29.88 841 24.83 0.7 33.2 50 -8.6 16.5
09:35 1012 29.88 841 24.83 1 33.9 50 -8.2 17.3
09:40 1012 29.88 841 24.83 1.3 34.4 48 -8.5 16.7
09:45 1012 29.88 841 24.83 1.7 35.1 45 -8.8 16.1
09:50 1012 29.88 841 24.83 2 35.6 45 -8.7 16.4
09:55 1012 29.88 841 24.83 2.1 35.7 44 -8.9 16
10:00 1012 29.88 841 24.83 2 35.6 45 -8.9 16.1
10:05 1012 29.88 841 24.83 1.7 35 46 -8.7 16.3
10:10 1012 29.88 841 24.83 1.3 34.4 48 -8.5 16.6
10:15 1012 29.88 842 24.86 2 35.5 46 -8.5 16.7
10:20 1012 29.88 842 24.86 1.1 34 51 -8.1 17.5
10:25 1012 29.88 842 24.86 0 32 51 -9 15.9
10:30 1012 29.88 842 24.86 -0.2 31.6 51 -9.2 15.4
10:35 1012 29.88 842 24.86 0.2 32.3 50 -9.1 15.7
10:40 1012 29.88 842 24.86 1.6 34.8 48 -8.4 16.9
10:45 1012 29.88 842 24.86 1.4 34.5 49 -8.1 17.5
10:50 1012 29.88 842 24.86 1 33.8 51 -8 17.7
10:55 1012 29.88 842 24.86 1.4 34.5 47 -8.9 16
11:00 1012 29.88 842 24.86 1.4 34.6 48 -8.4 16.9
11:05 1012 29.88 842 24.86 1.4 34.6 48 -8.4 16.8
11:10 1012 29.88 842 24.86 2.2 35.9 44 -8.9 16
11:15 1012 29.88 842 24.86 1.9 35.4 45 -8.9 16.1
11:20 1012 29.88 842 24.86 1.3 34.4 47 -8.8 16.2
11:25 1012 29.88 842 24.86 1.1 33.9 47 -9.1 15.6
11:30 1012 29.88 842 24.86 2 35.6 46 -8.4 16.8
11:35 1012 29.88 842 24.86 2.4 36.3 45 -8.3 17.1
11:40 1012 29.88 842 24.86 2.6 36.6 43 -8.7 16.3
11:45 1012 29.88 842 24.86 2.8 37.1 40 -9.5 15
11:50 1012 29.88 842 24.86 1.8 35.3 44 -9.2 15.5
11:55 1012 29.88 842 24.86 2.2 35.9 40 -9.9 14.1
12:00 1012 29.88 842 24.86 2.2 35.9 42 -9.5 14.9
12:05 1012 29.88 842 24.86 2 35.7 41 -9.7 14.5
12:10 1012 29.88 842 24.86 2.6 36.6 44 -8.5 16.6
12:15 1012 29.88 842 24.86 2.9 37.3 39 -9.8 14.3
12:20 1012 29.88 842 24.86 2.9 37.2 42 -8.9 16
12:25 1012 29.88 842 24.86 2.1 35.8 40 -10.2 13.7
12:30 1012 29.88 842 24.86 2.7 36.9 43 -8.7 16.3
12:35 1012 29.88 842 24.86 3.7 38.6 36 -10 14.1
12:40 1012 29.88 842 24.86 4 39.2 37 -9.4 15
12:45 1012 29.88 842 24.86 2.9 37.2 39 -9.7 14.5
12:50 1012 29.88 841 24.83 3.4 38.2 38 -9.4 15
12:55 1012 29.88 841 24.83 4.3 39.8 35 -9.8 14.4
13:00 1012 29.88 841 24.83 4.4 39.9 30 -11.7 11
13:05 1012 29.88 841 24.83 4.5 40.1 24 -14.5 6
13:10 1012 29.88 841 24.83 4.4 39.8 24 -14.5 5.9
13:15 1012 29.88 841 24.83 4.1 39.3 25 -14.5 5.9
13:20 1012 29.88 841 24.83 4.3 39.7 24 -14.8 5.3
13:25 1012 29.88 841 24.83 4.3 39.7 22 -15.9 3.3
13:30 1012 29.88 841 24.83 4.7 40.4 22 -15.1 4.8
13:35 1012 29.88 841 24.83 4.3 39.8 24 -14.5 5.8
13:40 1012 29.88 841 24.83 3.8 38.8 22 -16.1 3
13:45 1012 29.88 841 24.83 4.4 39.9 18 -18 -0.4
13:50 1012 29.88 841 24.83 3.9 39 21 -16.4 2.5
13:55 1012 29.88 841 24.83 3.9 39.1 23 -15.5 4
14:00 1012 29.88 841 24.83 4.6 40.2 21 -16.3 2.7
14:05 1012 29.88 841 24.83 4.2 39.5 22 -15.8 3.6
14:10 1012 29.88 841 24.83 4.9 40.9 21 -15.5 4
14:15 1012 29.88 841 24.83 4.7 40.4 22 -15.1 4.8
14:20 1012 29.88 841 24.83 4.7 40.4 20 -16.3 2.6
14:25 1012 29.88 841 24.83 4.7 40.4 20 -16.3 2.6
14:30 1012 29.88 841 24.83 5.3 41.5 19 -16.7 2
14:35 1011 29.85 841 24.83 5.7 42.2 18 -17 1.4
14:40 1011 29.85 841 24.83 4.8 40.6 20 -16.2 2.8
14:45 1011 29.85 841 24.83 5.3 41.5 18 -17.4 0.7
14:50 1011 29.85 841 24.83 4.5 40.2 19 -17.4 0.6
14:55 1011 29.85 841 24.83 4.1 39.4 22 -15.8 3.6
15:00 1011 29.85 840 24.81 5 41 19 -17 1.3
15:05 1011 29.85 840 24.81 4.5 40.1 21 -16.1 3.1
15:10 1011 29.85 840 24.81 4.8 40.6 20 -16.2 2.9
15:15 1011 29.85 840 24.81 4.5 40.2 21 -16.2 2.8
15:20 1011 29.85 840 24.81 4.8 40.7 22 -15.3 4.4
15:25 1011 29.85 840 24.81 5.7 42.2 22 -14.7 5.5
15:30 1011 29.85 840 24.81 5.3 41.6 22 -14.6 5.7
15:35 1011 29.85 840 24.81 6.1 42.9 23 -13.8 7.1
15:40 1011 29.85 840 24.81 6.6 43.9 19 -15.7 3.7
15:45 1011 29.85 840 24.81 6.6 43.9 18 -16 3.2
15:50 1011 29.85 840 24.81 6.1 43 20 -15.2 4.6
15:55 1011 29.85 840 24.81 6.9 44.3 20 -14.5 5.8
16:00 1011 29.85 840 24.81 6.5 43.7 20 -15 5
16:05 1011 29.85 840 24.81 6.3 43.3 21 -14.3 6.3
16:10 1011 29.85 840 24.81 6.4 43.5 20 -14.8 5.3
16:15 1011 29.85 840 24.81 6.8 44.3 20 -14.5 5.9
16:20 1011 29.85 840 24.81 5.9 42.7 21 -14.8 5.3
16:25 1011 29.85 840 24.81 6.2 43.2 20 -14.9 5.1
16:30 1011 29.85 840 24.81 6.7 44.1 21 -14.1 6.6
16:35 1011 29.85 840 24.81 6.3 43.3 20 -15 4.9
16:40 1011 29.85 840 24.81 6 42.8 21 -14.8 5.3
16:45 1011 29.85 840 24.81 6.2 43.2 20 -15.2 4.6
16:50 1011 29.85 840 24.81 6.5 43.8 21 -14.6 5.7
16:55 1011 29.85 840 24.81 6 42.8 22 -14.2 6.4
17:00 1011 29.85 840 24.81 6.5 43.7 21 -14.5 6
17:05 1011 29.85 840 24.81 7.3 45.1 20 -14 6.7
17:10 1011 29.85 840 24.81 7.2 45 20 -14.6 5.7
17:15 1011 29.85 840 24.81 7.1 44.8 19 -15.1 4.8
17:20 1011 29.85 840 24.81 6.8 44.3 20 -14.8 5.3
17:25 1011 29.85 840 24.81 6.9 44.4 19 -14.9 5.1
17:30 1011 29.85 840 24.81 7.1 44.8 19 -14.9 5.2
17:35 1011 29.85 840 24.81 7.1 44.9 20 -14.6 5.7
17:40 1011 29.85 840 24.81 6.4 43.6 20 -14.8 5.4
17:45 1011 29.85 840 24.81 6.4 43.5 23 -13.4 7.8
17:50 1011 29.85 840 24.81 6 42.8 22 -14.3 6.3
17:55 1011 29.85 840 24.81 5.9 42.7 22 -14.1 6.7
18:00 1010 29.83 840 24.81 5.8 42.4 24 -13.4 7.9
18:05 1010 29.83 840 24.81 5.9 42.7 22 -14.2 6.5
18:10 1010 29.83 840 24.81 5.6 42.2 23 -14.1 6.5
18:15 1010 29.83 840 24.81 5 41 23 -14.5 5.8
18:20 1010 29.83 839 24.78 4.9 40.8 23 -14.8 5.4
18:25 1010 29.83 839 24.78 5.4 41.7 23 -14.1 6.6
18:30 1010 29.83 839 24.78 5.6 42.1 23 -14.1 6.6
18:35 1010 29.83 839 24.78 5.6 42.1 22 -14.4 6.1
18:40 1010 29.83 839 24.78 5.4 41.8 23 -14.2 6.5
18:45 1010 29.83 839 24.78 5.3 41.5 23 -14.1 6.7
18:50 1010 29.83 839 24.78 5.1 41.1 23 -14.4 6.1
18:55 1010 29.83 839 24.78 4.9 40.9 24 -14.1 6.7
19:00 1010 29.83 839 24.78 5 41 24 -14.1 6.6
19:05 1010 29.83 839 24.78 4.9 40.8 24 -14.1 6.6
19:10 1010 29.83 839 24.78 4.8 40.6 25 -13.8 7.2
19:15 1010 29.83 839 24.78 4.8 40.6 25 -13.8 7.1
19:20 1010 29.83 839 24.78 4.5 40.2 27 -13.1 8.4
19:25 1010 29.83 839 24.78 4.1 39.3 27 -13.6 7.6
19:30 1010 29.83 839 24.78 3.7 38.6 28 -13.4 7.9
19:35 1010 29.83 839 24.78 3.4 38.1 26 -14.5 5.8
19:40 1010 29.83 839 24.78 3.6 38.4 27 -13.8 7.2
19:45 1010 29.83 839 24.78 3.6 38.5 26 -14 6.7
19:50 1010 29.83 839 24.78 3.3 37.9 28 -13.6 7.6
19:55 1010 29.83 839 24.78 3.1 37.5 29 -13.2 8.2
20:00 1010 29.83 839 24.78 2.8 37 31 -12.8 9
20:05 1010 29.83 839 24.78 2.5 36.5 32 -12.8 9
20:10 1010 29.83 839 24.78 2.3 36.1 33 -12.4 9.6
20:15 1010 29.83 839 24.78 2.2 35.9 33 -12.5 9.6
20:20 1010 29.83 839 24.78 2.1 35.7 33 -12.5 9.5
20:25 1010 29.83 839 24.78 2 35.6 33 -12.7 9.1
20:30 1010 29.83 839 24.78 2.3 36.1 32 -12.9 8.7
20:35 1010 29.83 839 24.78 2.3 36.1 32 -13 8.6
20:40 1010 29.83 839 24.78 2.3 36.2 32 -12.9 8.9
20:45 1010 29.83 839 24.78 2.3 36.2 31 -13.2 8.2
20:50 1010 29.83 839 24.78 2.3 36.1 31 -13.2 8.2
20:55 1010 29.83 839 24.78 2.1 35.8 32 -12.9 8.7
21:00 1010 29.83 839 24.78 2 35.5 32 -13 8.7
21:05 1010 29.83 839 24.78 1.7 35 34 -12.6 9.2
21:10 1010 29.83 839 24.78 1.3 34.4 35 -12.5 9.5
21:15 1010 29.83 839 24.78 1.2 34.2 34 -13.2 8.3
21:20 1010 29.83 839 24.78 1.2 34.2 34 -13.1 8.4
21:25 1010 29.83 839 24.78 1.2 34.2 35 -12.7 9.1
21:30 1010 29.83 839 24.78 0.9 33.6 38 -11.9 10.7
21:35 1010 29.83 839 24.78 0.5 32.9 40 -11.5 11.3
21:40 1010 29.83 839 24.78 0.2 32.4 41 -11.5 11.3
21:45 1010 29.83 839 24.78 0.1 32.2 43 -11.1 12
21:50 1010 29.83 839 24.78 -0.1 31.9 45 -10.7 12.7
21:55 1010 29.83 839 24.78 -0.3 31.4 44 -11.1 12.1
22:00 1010 29.83 839 24.78 -0.2 31.6 44 -10.9 12.3
22:05 1010 29.83 839 24.78 -0.2 31.7 43 -11.3 11.6
22:10 1010 29.83 839 24.78 -0.1 31.8 43 -11.2 11.8
22:15 1010 29.83 839 24.78 -0.1 31.9 43 -11.2 11.8
22:20 1010 29.83 839 24.78 -0.2 31.6 44 -11.1 12
22:25 1010 29.83 839 24.78 -0.3 31.5 44 -11 12.1
22:30 1010 29.83 839 24.78 -0.2 31.6 43 -11.2 11.8
22:35 1010 29.83 839 24.78 -0.1 31.8 44 -11.1 12.1
22:40 1010 29.83 839 24.78 -0.2 31.6 44 -11 12.3
22:45 1010 29.83 839 24.78 -0.3 31.5 45 -10.9 12.4
22:50 1010 29.83 839 24.78 -0.4 31.2 46 -10.7 12.7
22:55 1010 29.83 839 24.78 -0.6 31 48 -10.4 13.3
23:00 1010 29.83 839 24.78 -0.8 30.6 47 -10.7 12.8
23:05 1010 29.83 839 24.78 -0.6 30.9 45 -11.1 12
23:10 1010 29.83 839 24.78 -0.5 31.2 46 -10.6 12.9
23:15 1010 29.83 839 24.78 -0.7 30.7 48 -10.5 13.1
23:20 1010 29.83 839 24.78 -0.8 30.6 47 -10.7 12.8
23:25 1010 29.83 839 24.78 -0.7 30.7 47 -10.7 12.7
23:30 1010 29.83 839 24.78 -0.7 30.7 47 -10.6 12.9
23:35 1009 29.8 839 24.78 -0.8 30.6 47 -10.8 12.5
23:40 1009 29.8 839 24.78 -0.7 30.7 46 -10.8 12.5
23:45 1009 29.8 839 24.78 -0.7 30.7 47 -10.8 12.6
23:50 1009 29.8 839 24.78 -0.7 30.7 47 -10.7 12.7
23:55 1009 29.8 839 24.78 -0.9 30.5 48 -10.5 13.1
24:00 1009 29.8 839 24.78 -1 30.2 48 -10.6 13